Time;durP1;ratioP1;P1;durP2;ratioP2;P2;SDS_P1;SDS_P2;PMS_P1;PMS_P2;Temp;Humidity;BMP_temperature;BMP_pressure;BME280_temperature;BME280_humidity;BME280_pressure;Samples;Min_cycle;Max_cycle;Signal;HPM_P1;HPM_P2
2022/10/10 00:00:32;;;;;;;;;;;;;;;8.51;73.38;101427.50;5018010;28;19917;-66
2022/10/10 00:02:57;;;;;;;;;;;;;;;8.51;73.67;101420.56;5020347;28;20392;-66
2022/10/10 00:05:23;;;;;;;;;;;;;;;8.51;73.50;101417.09;5019085;28;19952;-66
2022/10/10 00:07:48;;;;;;;;;;;;;;;8.49;73.64;101419.63;5018968;28;19921;-66
2022/10/10 00:10:13;;;;;;;;;;;;;;;8.48;73.60;101422.16;5018330;28;20012;-66
2022/10/10 00:12:38;;;;;;;;;;;;;;;8.46;73.50;101418.63;5018354;28;19917;-66
2022/10/10 00:15:04;;;;;;;;;;;;;;;8.44;73.71;101413.34;5018573;28;19983;-66
2022/10/10 00:17:29;;;;;;;;;;;;;;;8.42;73.59;101411.50;5019117;28;19921;-72
2022/10/10 00:19:54;;;;;;;;;;;;;;;8.43;73.83;101415.84;5017605;28;19917;-71
2022/10/10 00:22:20;;;;;;;;;;;;;;;8.42;73.85;101416.69;5018758;28;20450;-71
2022/10/10 00:24:45;;;;;;;;;;;;;;;8.42;73.79;101414.97;5020574;28;19929;-71
2022/10/10 00:27:10;;;;;;;;;;;;;;;8.40;73.86;101411.44;5020922;28;19917;-71
2022/10/10 00:29:35;;;;;;;;;;;;;;;8.40;73.74;101414.03;5022058;28;19940;-71
2022/10/10 00:32:00;;;;;;;;;;;;;;;8.38;73.77;101410.47;5022868;28;20281;-71
2022/10/10 00:34:26;;;;;;;;;;;;;;;8.36;73.99;101418.19;5024465;28;19909;-72
2022/10/10 00:36:51;;;;;;;;;;;;;;;8.34;73.87;101411.16;5022155;28;19923;-71
2022/10/10 00:39:16;;;;;;;;;;;;;;;8.31;74.09;101405.84;5024809;28;19925;-71
2022/10/10 00:41:41;;;;;;;;;;;;;;;8.29;74.01;101405.78;5020574;28;19916;-71
2022/10/10 00:44:13;;;;;;;;;;;;;;;8.28;74.20;101398.81;5028583;28;19959;-72
2022/10/10 00:46:39;;;;;;;;;;;;;;;8.25;74.20;101400.41;5025911;28;19975;-71
2022/10/10 00:49:09;;;;;;;;;;;;;;;8.24;74.24;101401.22;5027002;28;20066;-71
2022/10/10 00:51:34;;;;;;;;;;;;;;;8.21;74.12;101396.78;5021862;28;20500;-71
2022/10/10 00:54:04;;;;;;;;;;;;;;;8.19;74.27;101394.13;5029814;28;19925;-71
2022/10/10 00:56:32;;;;;;;;;;;;;;;8.16;74.21;101395.72;5032099;28;19928;-71
2022/10/10 00:58:59;;;;;;;;;;;;;;;8.12;74.31;101389.50;5029712;28;19917;-71
2022/10/10 01:01:24;;;;;;;;;;;;;;;8.10;74.55;101390.28;5034100;28;19924;-71
2022/10/10 01:03:49;;;;;;;;;;;;;;;8.09;74.40;101386.78;5021622;28;19925;-71
2022/10/10 01:06:15;;;;;;;;;;;;;;;8.09;74.63;101385.91;5020792;28;20384;-71
2022/10/10 01:08:41;;;;;;;;;;;;;;;8.08;74.48;101390.22;5020203;28;19921;-71
2022/10/10 01:11:32;;;;;;;;;;;;;;;8.08;74.45;101384.13;5021295;28;19917;-71
2022/10/10 01:14:13;;;;;;;;;;;;;;;8.05;74.40;101378.78;5021166;28;19928;-71
2022/10/10 01:16:54;;;;;;;;;;;;;;;8.04;74.65;101379.59;5023678;28;19927;-71
2022/10/10 01:19:38;;;;;;;;;;;;;;;8.01;74.58;101375.19;5020978;28;19971;-71
2022/10/10 01:22:12;;;;;;;;;;;;;;;7.99;74.60;101379.41;5024357;28;20445;-71
2022/10/10 01:24:43;;;;;;;;;;;;;;;7.97;74.75;101374.16;5039806;28;19987;-71
2022/10/10 01:27:08;;;;;;;;;;;;;;;7.95;74.89;101377.50;5039670;28;19921;-71
2022/10/10 01:29:40;;;;;;;;;;;;;;;7.93;74.87;101381.75;5021591;28;19925;-71
2022/10/10 01:32:29;;;;;;;;;;;;;;;7.90;75.04;101373.84;5022123;28;20471;-71
2022/10/10 01:35:02;;;;;;;;;;;;;;;7.88;74.99;101371.19;5001351;28;19925;-71
2022/10/10 01:37:33;;;;;;;;;;;;;;;7.88;75.01;101375.47;5020025;28;20461;-71
2022/10/10 01:40:01;;;;;;;;;;;;;;;7.86;75.05;101366.75;5023749;28;19922;-71
2022/10/10 01:42:26;;;;;;;;;;;;;;;7.84;75.07;101364.97;5017895;28;19924;-71
2022/10/10 01:44:52;;;;;;;;;;;;;;;7.84;75.18;101364.97;5020640;28;20288;-71
2022/10/10 01:47:18;;;;;;;;;;;;;;;7.83;75.20;101357.13;5020637;28;20376;-71
2022/10/10 01:49:44;;;;;;;;;;;;;;;7.82;75.10;101360.53;5020570;28;19952;-71
2022/10/10 01:52:27;;;;;;;;;;;;;;;7.82;75.53;101363.13;5021005;28;20004;-71
2022/10/10 01:55:02;;;;;;;;;;;;;;;7.82;75.46;101353.66;5023268;28;19960;-71
2022/10/10 01:57:38;;;;;;;;;;;;;;;7.83;75.46;101357.13;5019866;28;19917;-71
2022/10/10 02:00:11;;;;;;;;;;;;;;;7.80;75.28;101355.28;5019011;28;19917;-71
2022/10/10 02:02:36;;;;;;;;;;;;;;;7.77;75.55;101351.69;5020392;28;19941;-71
2022/10/10 02:05:09;;;;;;;;;;;;;;;7.75;75.61;101351.59;5025911;28;19921;-71
2022/10/10 02:07:54;;;;;;;;;;;;;;;7.72;75.62;101345.38;5040849;28;19923;-71
2022/10/10 02:10:22;;;;;;;;;;;;;;;7.69;75.56;101343.56;5029207;28;20051;-71
2022/10/10 02:12:48;;;;;;;;;;;;;;;7.66;75.68;101348.59;5031574;28;19939;-71
2022/10/10 02:15:15;;;;;;;;;;;;;;;7.65;75.49;101342.53;5027491;28;20377;-71
2022/10/10 02:17:42;;;;;;;;;;;;;;;7.65;75.63;101336.47;5021139;28;19925;-71
2022/10/10 02:20:10;;;;;;;;;;;;;;;7.61;75.73;101330.25;5019766;28;19964;-71
2022/10/10 02:22:37;;;;;;;;;;;;;;;7.61;75.60;101335.44;5019594;28;19917;-71
2022/10/10 02:25:02;;;;;;;;;;;;;;;7.60;75.84;101331.09;5019744;28;20665;-71
2022/10/10 02:27:31;;;;;;;;;;;;;;;7.58;75.83;101330.13;5021113;28;19924;-71
2022/10/10 02:29:57;;;;;;;;;;;;;;;7.55;75.95;101323.94;5019469;28;19936;-71
2022/10/10 02:32:33;;;;;;;;;;;;;;;7.54;75.95;101324.75;5019421;28;19922;-71
2022/10/10 02:35:02;;;;;;;;;;;;;;;7.53;75.84;101325.56;5025122;28;19974;-71
2022/10/10 02:37:29;;;;;;;;;;;;;;;7.52;75.72;101324.69;5039326;28;20486;-71
2022/10/10 02:39:57;;;;;;;;;;;;;;;7.52;76.09;101323.78;5031744;28;19921;-71
2022/10/10 02:42:23;;;;;;;;;;;;;;;7.51;75.99;101315.13;5029740;28;19917;-71
2022/10/10 02:44:49;;;;;;;;;;;;;;;7.48;76.07;101313.25;5022942;28;19937;-71
2022/10/10 02:47:14;;;;;;;;;;;;;;;7.47;76.09;101308.00;5031388;28;19974;-71
2022/10/10 02:49:40;;;;;;;;;;;;;;;7.45;76.21;101307.94;5041369;28;19925;-71
2022/10/10 02:52:05;;;;;;;;;;;;;;;7.45;76.31;101307.06;5033015;28;20048;-71
2022/10/10 02:54:30;;;;;;;;;;;;;;;7.42;76.41;101297.44;5034588;28;19927;-71
2022/10/10 02:56:55;;;;;;;;;;;;;;;7.41;76.37;101308.63;5031362;28;19920;-71
2022/10/10 02:59:21;;;;;;;;;;;;;;;7.39;76.33;101299.91;5035295;28;19916;-71
2022/10/10 03:01:46;;;;;;;;;;;;;;;7.37;76.43;101300.66;5026618;28;19925;-71
2022/10/10 03:04:11;;;;;;;;;;;;;;;7.34;76.74;101300.53;5030956;28;19917;-71
2022/10/10 03:06:37;;;;;;;;;;;;;;;7.32;76.57;101290.09;5034791;28;20033;-71
2022/10/10 03:09:02;;;;;;;;;;;;;;;7.30;77.11;101287.44;5028824;28;19917;-71
2022/10/10 03:11:27;;;;;;;;;;;;;;;7.31;76.90;101291.81;5033101;28;20506;-71
2022/10/10 03:13:53;;;;;;;;;;;;;;;7.31;76.74;101288.31;5040911;28;20380;-71
2022/10/10 03:16:18;;;;;;;;;;;;;;;7.33;77.33;101294.47;5026292;28;19925;-70
2022/10/10 03:18:43;;;;;;;;;;;;;;;7.34;77.25;101288.44;5026971;28;19924;-71
2022/10/10 03:21:08;;;;;;;;;;;;;;;7.37;77.28;101290.28;5024993;28;20357;-71
2022/10/10 03:23:34;;;;;;;;;;;;;;;7.36;77.58;101286.81;5039730;28;19928;-71
2022/10/10 03:25:59;;;;;;;;;;;;;;;7.36;77.99;101284.22;5027401;28;20012;-71
2022/10/10 03:28:24;;;;;;;;;;;;;;;7.38;77.88;101279.97;5023379;28;20012;-71
2022/10/10 03:30:50;;;;;;;;;;;;;;;7.39;78.08;101279.16;5027112;28;19928;-71
2022/10/10 03:33:15;;;;;;;;;;;;;;;7.40;77.99;101286.13;5032532;28;20423;-70
2022/10/10 03:35:40;;;;;;;;;;;;;;;7.40;77.65;101283.56;5031757;28;19932;-71
2022/10/10 03:38:06;;;;;;;;;;;;;;;7.41;77.91;101284.41;5032418;28;19921;-71
2022/10/10 03:40:31;;;;;;;;;;;;;;;7.42;77.98;101289.69;5032857;28;20419;-71
2022/10/10 03:42:56;;;;;;;;;;;;;;;7.42;77.95;101287.09;5022967;28;19921;-71
2022/10/10 03:45:22;;;;;;;;;;;;;;;7.44;77.82;101289.75;5028098;28;19925;-71
2022/10/10 03:47:47;;;;;;;;;;;;;;;7.45;77.73;101291.53;5030816;28;20425;-71
2022/10/10 03:50:12;;;;;;;;;;;;;;;7.46;77.58;101294.19;5028357;28;20387;-71
2022/10/10 03:52:38;;;;;;;;;;;;;;;7.47;78.08;101290.78;5025682;28;19924;-71
2022/10/10 03:55:03;;;;;;;;;;;;;;;7.48;78.06;101291.66;5018787;28;20102;-71
2022/10/10 03:57:28;;;;;;;;;;;;;;;7.48;78.23;101292.53;5019060;28;20020;-71
2022/10/10 03:59:54;;;;;;;;;;;;;;;7.48;78.25;101292.53;5018085;28;19924;-71
2022/10/10 04:02:19;;;;;;;;;;;;;;;7.51;78.61;101288.31;5019926;28;19917;-71
2022/10/10 04:04:44;;;;;;;;;;;;;;;7.53;78.52;101292.75;5023312;28;19963;-71
2022/10/10 04:07:09;;;;;;;;;;;;;;;7.57;78.69;101285.97;5022652;28;19925;-71
2022/10/10 04:09:34;;;;;;;;;;;;;;;7.59;78.64;101284.31;5021704;28;19921;-71
2022/10/10 04:12:00;;;;;;;;;;;;;;;7.59;78.37;101279.13;5022457;28;20439;-71
2022/10/10 04:14:25;;;;;;;;;;;;;;;7.61;78.65;101283.56;5023258;28;19975;-71
2022/10/10 04:16:51;;;;;;;;;;;;;;;7.63;79.11;101284.53;5022302;28;20359;-71
2022/10/10 04:19:16;;;;;;;;;;;;;;;7.65;79.66;101287.19;5029542;28;20477;-71
2022/10/10 04:21:41;;;;;;;;;;;;;;;7.66;79.13;101286.34;5034791;28;19927;-71
2022/10/10 04:24:07;;;;;;;;;;;;;;;7.67;79.40;101282.94;5037648;28;20564;-71
2022/10/10 04:26:32;;;;;;;;;;;;;;;7.68;78.92;101287.31;5034429;28;19917;-71
2022/10/10 04:28:57;;;;;;;;;;;;;;;7.71;78.95;101289.16;5022274;28;19960;-71
2022/10/10 04:31:23;;;;;;;;;;;;;;;7.73;78.96;101293.56;5021452;28;19917;-71
2022/10/10 04:33:48;;;;;;;;;;;;;;;7.75;79.29;101286.75;5022766;28;19917;-71
2022/10/10 04:36:13;;;;;;;;;;;;;;;7.76;79.33;101290.22;5024442;28;20396;-71
2022/10/10 04:38:38;;;;;;;;;;;;;;;7.76;79.41;101285.94;5024258;28;19925;-70
2022/10/10 04:41:04;;;;;;;;;;;;;;;7.77;79.11;101286.81;5025314;28;19917;-71
2022/10/10 04:43:29;;;;;;;;;;;;;;;7.77;78.81;101286.81;5021833;28;20276;-71
2022/10/10 04:45:57;;;;;;;;;;;;;;;7.75;79.38;101284.16;5021654;28;19928;-70
2022/10/10 04:48:22;;;;;;;;;;;;;;;7.75;78.79;101286.75;5023605;28;19917;-71
2022/10/10 04:50:55;;;;;;;;;;;;;;;7.73;79.05;101278.00;5022006;28;19944;-71
2022/10/10 04:53:20;;;;;;;;;;;;;;;7.75;79.20;101283.25;5033204;28;19971;-71
2022/10/10 04:55:45;;;;;;;;;;;;;;;7.74;79.21;101279.78;5035717;28;20458;-71
2022/10/10 04:58:10;;;;;;;;;;;;;;;7.73;78.92;101288.38;5043933;28;20277;-70
2022/10/10 05:00:37;;;;;;;;;;;;;;;7.72;79.22;101285.72;5025036;28;19943;-71
2022/10/10 05:03:02;;;;;;;;;;;;;;;7.70;78.91;101283.06;5024245;28;19925;-71
2022/10/10 05:05:27;;;;;;;;;;;;;;;7.71;79.35;101290.03;5022315;28;19916;-71
2022/10/10 05:07:52;;;;;;;;;;;;;;;7.67;78.75;101277.75;5021947;28;19975;-70
2022/10/10 05:10:17;;;;;;;;;;;;;;;7.65;78.77;101274.22;5022062;28;19928;-71
2022/10/10 05:12:43;;;;;;;;;;;;;;;7.63;78.68;101278.44;5022226;28;20003;-71
2022/10/10 05:15:08;;;;;;;;;;;;;;;7.58;78.84;101270.47;5020868;28;19971;-71
2022/10/10 05:17:33;;;;;;;;;;;;;;;7.58;79.02;101272.19;5020123;28;19917;-71
2022/10/10 05:19:58;;;;;;;;;;;;;;;7.56;79.28;101272.13;5022523;28;19921;-71
2022/10/10 05:22:24;;;;;;;;;;;;;;;7.56;79.49;101269.53;5021192;28;19913;-71
2022/10/10 05:24:49;;;;;;;;;;;;;;;7.59;79.64;101268.75;5022026;28;21113;-71
2022/10/10 05:27:14;;;;;;;;;;;;;;;7.58;79.41;101273.06;5030764;28;19916;-71
2022/10/10 05:29:39;;;;;;;;;;;;;;;7.58;79.43;101272.19;5044610;28;19913;-70
2022/10/10 05:32:05;;;;;;;;;;;;;;;7.57;79.57;101275.59;5032367;28;20308;-71
2022/10/10 05:34:30;;;;;;;;;;;;;;;7.55;79.28;101274.66;5019801;28;20389;-71
2022/10/10 05:36:55;;;;;;;;;;;;;;;7.55;79.53;101272.06;5021085;28;19944;-71
2022/10/10 05:39:21;;;;;;;;;;;;;;;7.55;79.62;101275.53;5020601;28;19920;-71
2022/10/10 05:41:46;;;;;;;;;;;;;;;7.58;79.76;101277.38;5022500;28;20423;-71
2022/10/10 05:44:11;;;;;;;;;;;;;;;7.59;79.91;101271.34;5020807;28;19927;-71
2022/10/10 05:46:36;;;;;;;;;;;;;;;7.61;79.60;101274.91;5020740;28;19925;-71
2022/10/10 05:49:01;;;;;;;;;;;;;;;7.62;80.27;101280.16;5020465;28;19927;-71
2022/10/10 05:51:27;;;;;;;;;;;;;;;7.62;80.09;101279.28;5021220;28;19909;-71
2022/10/10 05:53:52;;;;;;;;;;;;;;;7.61;80.05;101275.78;5023525;28;20175;-71
2022/10/10 05:56:17;;;;;;;;;;;;;;;7.62;80.47;101276.69;5021334;28;19921;-71
2022/10/10 05:58:43;;;;;;;;;;;;;;;7.65;80.83;101279.41;5020750;28;19925;-71
2022/10/10 06:01:08;;;;;;;;;;;;;;;7.68;80.80;101281.25;5019665;28;19971;-71
2022/10/10 06:03:34;;;;;;;;;;;;;;;7.69;81.03;101277.81;5021790;28;19971;-70
2022/10/10 06:05:59;;;;;;;;;;;;;;;7.72;80.86;101280.53;5025081;28;19960;-71
2022/10/10 06:08:24;;;;;;;;;;;;;;;7.73;81.15;101278.00;5020033;28;19971;-71
2022/10/10 06:10:50;;;;;;;;;;;;;;;7.76;81.17;101278.16;5020282;28;19917;-71
2022/10/10 06:13:16;;;;;;;;;;;;;;;7.79;80.76;101277.38;5028448;28;19971;-71
2022/10/10 06:15:41;;;;;;;;;;;;;;;7.81;80.65;101280.94;5035234;28;20251;-70
2022/10/10 06:18:07;;;;;;;;;;;;;;;7.83;81.90;101279.28;5045442;28;20445;-71
2022/10/10 06:20:35;;;;;;;;;;;;;;;7.86;81.51;101288.91;5033931;28;19920;-71
2022/10/10 06:23:01;;;;;;;;;;;;;;;7.88;81.55;101290.75;5038969;28;19923;-71
2022/10/10 06:25:26;;;;;;;;;;;;;;;7.89;81.86;101292.50;5034393;28;19913;-71
2022/10/10 06:27:51;;;;;;;;;;;;;;;7.92;81.66;101296.94;5036772;28;20016;-71
2022/10/10 06:30:16;;;;;;;;;;;;;;;7.95;81.69;101290.19;5049264;28;19919;-71
2022/10/10 06:32:42;;;;;;;;;;;;;;;7.98;81.42;101297.19;5036597;28;20373;-71
2022/10/10 06:35:07;;;;;;;;;;;;;;;8.00;81.59;101293.84;5045615;28;20398;-71
2022/10/10 06:37:32;;;;;;;;;;;;;;;8.00;81.68;101291.25;5042750;28;20003;-71
2022/10/10 06:39:58;;;;;;;;;;;;;;;8.01;81.61;101294.75;5031341;28;19917;-70
2022/10/10 06:42:23;;;;;;;;;;;;;;;8.04;82.14;101300.06;5040498;28;19923;-71
2022/10/10 06:44:49;;;;;;;;;;;;;;;8.07;81.98;101302.78;5050820;28;19960;-71
2022/10/10 06:47:14;;;;;;;;;;;;;;;8.10;81.83;101300.31;5042378;28;19947;-71
2022/10/10 06:49:40;;;;;;;;;;;;;;;8.12;82.05;101308.16;5051091;28;19917;-71
2022/10/10 06:52:05;;;;;;;;;;;;;;;8.14;81.98;101309.09;5038812;28;19925;-71
2022/10/10 06:54:30;;;;;;;;;;;;;;;8.17;82.48;101309.25;5019597;28;19921;-71
2022/10/10 06:56:55;;;;;;;;;;;;;;;8.19;82.40;101305.84;5019803;28;19921;-71
2022/10/10 06:59:20;;;;;;;;;;;;;;;8.23;82.17;101314.69;5019470;28;19943;-71
2022/10/10 07:01:46;;;;;;;;;;;;;;;8.27;82.22;101310.47;5020070;28;19971;-71
2022/10/10 07:04:12;;;;;;;;;;;;;;;8.31;82.61;101314.97;5022819;28;19928;-70
2022/10/10 07:06:37;;;;;;;;;;;;;;;8.35;82.73;101312.56;5021856;28;19921;-70
2022/10/10 07:09:02;;;;;;;;;;;;;;;8.40;82.87;101314.47;5019450;28;19921;-71
2022/10/10 07:11:28;;;;;;;;;;;;;;;8.44;83.00;101314.66;5020401;28;19921;-71
2022/10/10 07:13:53;;;;;;;;;;;;;;;8.49;82.61;101315.75;5022239;28;19926;-71
2022/10/10 07:16:18;;;;;;;;;;;;;;;8.56;83.33;101318.59;5031252;28;19925;-70
2022/10/10 07:18:44;;;;;;;;;;;;;;;8.61;83.10;101314.47;5036761;28;19925;-71
2022/10/10 07:21:09;;;;;;;;;;;;;;;8.68;83.11;101321.69;5024258;28;19929;-71
2022/10/10 07:23:35;;;;;;;;;;;;;;;8.74;83.47;101324.50;5027609;28;19998;-70
2022/10/10 07:26:02;;;;;;;;;;;;;;;8.83;83.82;101322.25;5035919;28;19924;-72
2022/10/10 07:28:28;;;;;;;;;;;;;;;8.91;83.61;101325.16;5035668;28;19931;-70
2022/10/10 07:30:58;;;;;;;;;;;;;;;8.98;83.84;101316.78;5025535;28;19914;-70
2022/10/10 07:33:23;;;;;;;;;;;;;;;9.08;83.73;101322.28;5022850;28;19959;-71
2022/10/10 07:35:53;;;;;;;;;;;;;;;9.15;84.48;101316.50;5033194;28;20022;-71
2022/10/10 07:38:18;;;;;;;;;;;;;;;9.23;84.21;101317.69;5034923;28;19956;-70
2022/10/10 07:40:43;;;;;;;;;;;;;;;9.31;82.60;101320.53;5029122;28;20003;-71
2022/10/10 07:43:09;;;;;;;;;;;;;;;9.40;83.74;101324.38;5021091;28;19959;-70
2022/10/10 07:45:35;;;;;;;;;;;;;;;9.51;84.26;101323.88;5022436;28;19924;-71
2022/10/10 07:48:00;;;;;;;;;;;;;;;9.60;84.24;101333.72;5022560;28;19964;-70
2022/10/10 07:50:25;;;;;;;;;;;;;;;9.68;85.06;101338.34;5022464;28;19957;-70
2022/10/10 07:52:51;;;;;;;;;;;;;;;9.77;83.75;101339.53;5022261;28;19930;-70
2022/10/10 07:55:16;;;;;;;;;;;;;;;9.84;83.87;101342.38;5030094;28;19929;-71
2022/10/10 07:57:41;;;;;;;;;;;;;;;9.92;84.22;101345.22;5022889;28;19947;-70
2022/10/10 08:00:07;;;;;;;;;;;;;;;10.00;83.74;101348.13;5023526;28;20000;-70
2022/10/10 08:02:32;;;;;;;;;;;;;;;10.07;83.31;101350.97;5031793;28;19917;-70
2022/10/10 08:04:58;;;;;;;;;;;;;;;10.17;83.48;101353.91;5037535;28;19917;-70
2022/10/10 08:07:23;;;;;;;;;;;;;;;10.25;83.76;101355.03;5036425;28;19917;-70
2022/10/10 08:09:48;;;;;;;;;;;;;;;10.34;82.94;101357.97;5022157;28;19913;-70
2022/10/10 08:12:14;;;;;;;;;;;;;;;10.40;82.95;101358.19;5023450;28;20023;-70
2022/10/10 08:14:39;;;;;;;;;;;;;;;10.47;83.36;101348.84;5022205;28;19913;-70
2022/10/10 08:17:04;;;;;;;;;;;;;;;10.56;83.73;101345.66;5022572;28;19928;-71
2022/10/10 08:19:29;;;;;;;;;;;;;;;10.63;82.41;101346.72;5033902;28;19960;-71
2022/10/10 08:21:55;;;;;;;;;;;;;;;10.69;82.62;101349.50;5022498;28;20469;-71
2022/10/10 08:24:20;;;;;;;;;;;;;;;10.75;82.40;101352.31;5023067;28;19927;-71
2022/10/10 08:26:45;;;;;;;;;;;;;;;10.81;83.07;101347.28;5022578;28;19944;-71
2022/10/10 08:29:11;;;;;;;;;;;;;;;10.88;83.10;101348.38;5022654;28;20660;-71
2022/10/10 08:31:36;;;;;;;;;;;;;;;10.94;83.69;101353.75;5021755;28;20007;-71
2022/10/10 08:34:01;;;;;;;;;;;;;;;11.02;82.49;101359.19;5022974;28;19971;-71
2022/10/10 08:36:26;;;;;;;;;;;;;;;11.08;82.29;101354.16;5025719;28;19948;-72
2022/10/10 08:38:56;;;;;;;;;;;;;;;11.14;82.54;101357.84;5040463;28;19917;-70
2022/10/10 08:41:24;;;;;;;;;;;;;;;11.20;82.21;101357.16;5030724;28;19917;-72
2022/10/10 08:43:51;;;;;;;;;;;;;;;11.27;82.75;101359.09;5035968;28;19916;-71
2022/10/10 08:46:22;;;;;;;;;;;;;;;11.37;82.24;101355.03;5034094;28;19932;-71
2022/10/10 08:48:48;;;;;;;;;;;;;;;11.47;82.64;101353.53;5031132;28;20421;-72
2022/10/10 08:51:18;;;;;;;;;;;;;;;11.57;82.29;101358.22;5031072;28;19917;-72
2022/10/10 08:53:45;;;;;;;;;;;;;;;11.68;82.02;101360.22;5027795;28;20092;-71
2022/10/10 08:56:14;;;;;;;;;;;;;;;11.78;81.28;101360.50;5038722;28;19943;-71
2022/10/10 08:58:42;;;;;;;;;;;;;;;11.91;82.23;101360.84;5032880;28;19921;-71
2022/10/10 09:01:11;;;;;;;;;;;;;;;11.99;81.90;101351.50;5035081;28;19956;-71
2022/10/10 09:03:40;;;;;;;;;;;;;;;12.09;81.86;101350.88;5032010;28;19925;-71
2022/10/10 09:06:19;;;;;;;;;;;;;;;12.21;82.11;101359.88;5036895;28;20394;-71
2022/10/10 09:08:53;;;;;;;;;;;;;;;12.33;82.01;101366.28;5035782;28;19925;-71
2022/10/10 09:11:18;;;;;;;;;;;;;;;12.44;81.23;101360.44;5032073;28;19932;-71
2022/10/10 09:14:00;;;;;;;;;;;;;;;12.54;81.11;101362.44;5044515;28;19917;-71
2022/10/10 09:16:35;;;;;;;;;;;;;;;12.61;80.92;101361.72;5032109;28;19922;-71
2022/10/10 09:19:09;;;;;;;;;;;;;;;12.70;80.61;101368.91;5029262;28;19917;-71
2022/10/10 09:21:37;;;;;;;;;;;;;;;12.77;80.36;101377.78;5030984;28;19999;-71
2022/10/10 09:24:11;;;;;;;;;;;;;;;12.83;80.32;101377.91;5025257;28;20508;-71
2022/10/10 09:26:38;;;;;;;;;;;;;;;12.90;80.25;101387.66;5036000;28;19916;-71
2022/10/10 09:29:13;;;;;;;;;;;;;;;12.97;80.03;101380.84;5030164;28;19925;-71
2022/10/10 09:31:44;;;;;;;;;;;;;;;13.04;80.06;101385.38;5026987;28;20269;-73
2022/10/10 09:34:15;;;;;;;;;;;;;;;13.10;79.38;101376.78;5024615;28;19921;-72
2022/10/10 09:36:40;;;;;;;;;;;;;;;13.17;79.62;101403.09;5027762;28;20388;-71
2022/10/10 09:39:12;;;;;;;;;;;;;;;13.26;79.32;101397.19;5038746;28;20078;-71
2022/10/10 09:41:52;;;;;;;;;;;;;;;13.35;79.24;101396.53;5036110;28;19917;-71
2022/10/10 09:44:19;;;;;;;;;;;;;;;13.47;79.38;101395.91;5031986;28;19959;-71
2022/10/10 09:46:44;;;;;;;;;;;;;;;13.57;79.04;101395.25;5033327;28;19921;-71
2022/10/10 09:49:12;;;;;;;;;;;;;;;13.67;78.71;101397.22;5028013;28;19947;-71
2022/10/10 09:51:37;;;;;;;;;;;;;;;13.77;78.48;101397.38;5032373;28;20797;-71
2022/10/10 09:54:03;;;;;;;;;;;;;;;13.83;78.48;101403.63;5031479;28;19921;-71
2022/10/10 09:56:37;;;;;;;;;;;;;;;13.90;78.61;101408.13;5042695;28;20415;-72
2022/10/10 09:59:02;;;;;;;;;;;;;;;13.94;77.89;101401.19;5043648;28;19920;-71
2022/10/10 10:01:30;;;;;;;;;;;;;;;14.01;77.75;101402.19;5026860;28;19917;-71
2022/10/10 10:04:14;;;;;;;;;;;;;;;14.04;77.85;101397.00;5034230;28;20340;-72
2022/10/10 10:06:48;;;;;;;;;;;;;;;14.08;77.82;101404.09;5023348;28;19927;-71
2022/10/10 10:09:18;;;;;;;;;;;;;;;14.13;77.79;101401.53;5031709;28;19917;-71
2022/10/10 10:11:45;;;;;;;;;;;;;;;14.14;77.54;101393.69;5023617;28;19928;-71
2022/10/10 10:14:24;;;;;;;;;;;;;;;14.18;77.57;101405.09;5027745;28;19929;-71
2022/10/10 10:16:50;;;;;;;;;;;;;;;14.22;77.48;101401.69;5018643;28;19979;-71
2022/10/10 10:19:29;;;;;;;;;;;;;;;14.27;77.38;101405.28;5035151;28;20486;-71
2022/10/10 10:21:54;;;;;;;;;;;;;;;14.33;77.60;101408.00;5032629;28;19917;-71
2022/10/10 10:24:21;;;;;;;;;;;;;;;14.39;77.34;101408.09;5031008;28;20312;-71
2022/10/10 10:26:47;;;;;;;;;;;;;;;14.44;77.26;101402.97;5041435;28;19929;-71
2022/10/10 10:29:27;;;;;;;;;;;;;;;14.47;76.82;101404.72;5030032;28;20007;-71
2022/10/10 10:32:02;;;;;;;;;;;;;;;14.57;77.14;101410.16;5034983;28;20091;-72
2022/10/10 10:34:49;;;;;;;;;;;;;;;14.71;76.96;101409.53;5033894;28;19939;-72
2022/10/10 10:37:20;;;;;;;;;;;;;;;14.85;76.94;101420.25;5029178;28;19922;-71
2022/10/10 10:39:52;;;;;;;;;;;;;;;15.05;76.42;101417.91;5032015;28;19939;-71
2022/10/10 10:42:29;;;;;;;;;;;;;;;15.16;76.21;101415.44;5031219;28;19920;-71
2022/10/10 10:45:02;;;;;;;;;;;;;;;15.33;75.96;101419.16;5029600;28;19921;-71
2022/10/10 10:47:36;;;;;;;;;;;;;;;15.54;75.59;101425.53;5027198;28;19929;-71
2022/10/10 10:50:20;;;;;;;;;;;;;;;15.63;75.14;101428.31;5030204;28;20478;-71
2022/10/10 10:52:51;;;;;;;;;;;;;;;15.62;74.48;101422.16;5028711;28;19917;-72
2022/10/10 10:55:26;;;;;;;;;;;;;;;15.63;74.55;101438.81;5039164;28;20312;-71
2022/10/10 10:58:03;;;;;;;;;;;;;;;15.67;75.02;101438.00;5051049;28;19959;-71
2022/10/10 11:00:32;;;;;;;;;;;;;;;15.72;73.42;101436.28;5030293;28;19921;-71
2022/10/10 11:03:06;;;;;;;;;;;;;;;15.80;74.39;101437.31;5029216;28;20404;-71
2022/10/10 11:05:34;;;;;;;;;;;;;;;15.92;74.55;101438.31;5032671;28;19996;-71
2022/10/10 11:08:18;;;;;;;;;;;;;;;16.00;74.27;101444.50;5047721;28;20447;-71
2022/10/10 11:10:51;;;;;;;;;;;;;;;16.12;74.49;101449.00;5028042;28;19921;-70
2022/10/10 11:13:22;;;;;;;;;;;;;;;16.17;73.86;101450.81;5041070;28;19924;-71
2022/10/10 11:15:54;;;;;;;;;;;;;;;16.17;73.65;101444.69;5025628;28;19964;-70
2022/10/10 11:18:24;;;;;;;;;;;;;;;16.20;74.11;101451.75;5033646;28;19928;-72
2022/10/10 11:21:07;;;;;;;;;;;;;;;16.23;72.89;101457.91;5035209;28;19936;-72
2022/10/10 11:23:35;;;;;;;;;;;;;;;16.30;73.47;101464.97;5046319;28;20008;-71
2022/10/10 11:26:03;;;;;;;;;;;;;;;16.41;72.09;101466.84;5044932;28;20459;-69
2022/10/10 11:28:32;;;;;;;;;;;;;;;16.48;73.14;101466.94;5049236;28;19917;-71
2022/10/10 11:31:04;;;;;;;;;;;;;;;16.55;72.92;101464.34;5049118;28;20300;-71
2022/10/10 11:33:32;;;;;;;;;;;;;;;16.62;72.62;101464.41;5050057;28;19913;-71
2022/10/10 11:36:00;;;;;;;;;;;;;;;16.68;72.70;101456.56;5040229;28;19924;-71
2022/10/10 11:38:34;;;;;;;;;;;;;;;16.79;72.69;101451.38;5046935;28;19925;-70
2022/10/10 11:41:07;;;;;;;;;;;;;;;16.92;72.35;101456.78;5041015;28;19990;-71
2022/10/10 11:43:35;;;;;;;;;;;;;;;17.00;72.10;101452.44;5047810;28;19917;-69
2022/10/10 11:46:05;;;;;;;;;;;;;;;17.10;71.44;101456.03;5050048;28;19928;-70
2022/10/10 11:48:54;;;;;;;;;;;;;;;17.20;72.12;101456.06;5040144;28;19962;-70
2022/10/10 11:51:35;;;;;;;;;;;;;;;17.33;71.83;101456.16;5039621;28;19995;-69
2022/10/10 11:54:03;;;;;;;;;;;;;;;17.45;71.50;101461.50;5027128;28;19970;-70
2022/10/10 11:56:36;;;;;;;;;;;;;;;17.48;70.09;101458.88;5043460;28;19928;-70
2022/10/10 11:59:22;;;;;;;;;;;;;;;17.45;71.00;101456.22;5050046;28;20381;-71
2022/10/10 12:01:50;;;;;;;;;;;;;;;17.40;70.35;101457.94;5049901;28;19923;-70
2022/10/10 12:04:16;;;;;;;;;;;;;;;17.32;70.80;101457.03;5044960;28;19917;-70
2022/10/10 12:06:47;;;;;;;;;;;;;;;17.28;70.63;101460.50;5025835;28;19924;-72
2022/10/10 12:09:12;;;;;;;;;;;;;;;17.28;70.25;101471.03;5030228;28;20402;-71
2022/10/10 12:11:52;;;;;;;;;;;;;;;17.27;70.90;101464.03;5028858;28;19917;-71
2022/10/10 12:14:20;;;;;;;;;;;;;;;17.29;70.98;101472.81;5041986;28;19920;-70
2022/10/10 12:16:45;;;;;;;;;;;;;;;17.36;70.96;101472.84;5032507;28;19932;-70
2022/10/10 12:19:13;;;;;;;;;;;;;;;17.42;71.03;101474.63;5031224;28;19921;-70
2022/10/10 12:21:59;;;;;;;;;;;;;;;17.44;70.88;101480.81;5028238;28;19978;-71
2022/10/10 12:24:25;;;;;;;;;;;;;;;17.51;70.86;101479.06;5032146;28;19953;-70
2022/10/10 12:26:51;;;;;;;;;;;;;;;17.60;70.92;101470.31;5040435;28;19917;-70
2022/10/10 12:29:36;;;;;;;;;;;;;;;17.71;70.33;101479.16;5035449;28;19932;-71
2022/10/10 12:32:24;;;;;;;;;;;;;;;17.85;70.94;101477.47;5025230;28;19971;-71
2022/10/10 12:34:49;;;;;;;;;;;;;;;17.98;70.10;101470.50;5028104;28;19917;-70
2022/10/10 12:37:34;;;;;;;;;;;;;;;18.01;70.08;101472.28;5031966;28;19980;-70
2022/10/10 12:40:02;;;;;;;;;;;;;;;17.99;69.97;101476.69;5040715;28;20011;-71
2022/10/10 12:42:29;;;;;;;;;;;;;;;17.93;69.93;101474.00;5035825;28;19913;-70
2022/10/10 12:44:55;;;;;;;;;;;;;;;17.88;70.28;101477.47;5038823;28;19921;-71
2022/10/10 12:47:27;;;;;;;;;;;;;;;17.82;69.86;101490.63;5034528;28;19944;-71